sensor_id;sensor_type;location;lat;lon;timestamp;P1;durP1;ratioP1;P2;durP2;ratioP2
63157;SDS011;49381;49.338;8.794;2022-10-31T00:01:20;6.82;;;3.88;;
63157;SDS011;49381;49.338;8.794;2022-10-31T00:03:22;6.10;;;3.67;;
63157;SDS011;49381;49.338;8.794;2022-10-31T00:05:23;6.45;;;3.20;;
63157;SDS011;49381;49.338;8.794;2022-10-31T00:07:23;8.57;;;4.03;;
63157;SDS011;49381;49.338;8.794;2022-10-31T00:09:25;7.90;;;4.13;;
63157;SDS011;49381;49.338;8.794;2022-10-31T00:11:25;8.45;;;3.63;;
63157;SDS011;49381;49.338;8.794;2022-10-31T00:13:26;13.27;;;4.10;;
63157;SDS011;49381;49.338;8.794;2022-10-31T00:15:26;14.40;;;4.80;;
63157;SDS011;49381;49.338;8.794;2022-10-31T00:17:27;10.60;;;4.70;;
63157;SDS011;49381;49.338;8.794;2022-10-31T00:19:27;20.25;;;6.07;;
63157;SDS011;49381;49.338;8.794;2022-10-31T00:21:28;13.65;;;6.07;;
63157;SDS011;49381;49.338;8.794;2022-10-31T00:23:29;12.07;;;5.53;;
63157;SDS011;49381;49.338;8.794;2022-10-31T00:25:32;17.88;;;5.72;;
63157;SDS011;49381;49.338;8.794;2022-10-31T00:27:36;12.32;;;5.72;;
63157;SDS011;49381;49.338;8.794;2022-10-31T00:29:36;15.00;;;5.65;;
63157;SDS011;49381;49.338;8.794;2022-10-31T00:31:36;15.23;;;5.75;;
63157;SDS011;49381;49.338;8.794;2022-10-31T00:33:37;12.98;;;5.53;;
63157;SDS011;49381;49.338;8.794;2022-10-31T00:35:39;16.27;;;5.53;;
63157;SDS011;49381;49.338;8.794;2022-10-31T00:37:39;10.65;;;4.47;;
63157;SDS011;49381;49.338;8.794;2022-10-31T00:39:39;13.27;;;4.47;;
63157;SDS011;49381;49.338;8.794;2022-10-31T00:41:41;10.35;;;4.55;;
63157;SDS011;49381;49.338;8.794;2022-10-31T00:43:41;13.73;;;5.43;;
63157;SDS011;49381;49.338;8.794;2022-10-31T00:45:42;10.95;;;4.25;;
63157;SDS011;49381;49.338;8.794;2022-10-31T00:47:43;19.42;;;4.90;;
63157;SDS011;49381;49.338;8.794;2022-10-31T00:49:43;26.42;;;4.85;;
63157;SDS011;49381;49.338;8.794;2022-10-31T00:51:43;7.78;;;4.00;;
63157;SDS011;49381;49.338;8.794;2022-10-31T00:53:44;13.77;;;4.13;;
63157;SDS011;49381;49.338;8.794;2022-10-31T00:55:44;16.15;;;3.95;;
63157;SDS011;49381;49.338;8.794;2022-10-31T00:57:47;9.00;;;4.13;;
63157;SDS011;49381;49.338;8.794;2022-10-31T00:59:47;6.78;;;4.20;;
63157;SDS011;49381;49.338;8.794;2022-10-31T01:01:47;10.93;;;4.50;;
63157;SDS011;49381;49.338;8.794;2022-10-31T01:03:48;11.85;;;4.72;;
63157;SDS011;49381;49.338;8.794;2022-10-31T01:05:55;13.90;;;5.25;;
63157;SDS011;49381;49.338;8.794;2022-10-31T01:07:59;10.05;;;5.15;;
63157;SDS011;49381;49.338;8.794;2022-10-31T01:09:59;8.73;;;4.80;;
63157;SDS011;49381;49.338;8.794;2022-10-31T01:12:00;12.32;;;4.88;;
63157;SDS011;49381;49.338;8.794;2022-10-31T01:14:01;9.45;;;4.38;;
63157;SDS011;49381;49.338;8.794;2022-10-31T01:16:02;8.95;;;4.82;;
63157;SDS011;49381;49.338;8.794;2022-10-31T01:18:05;10.32;;;4.50;;
63157;SDS011;49381;49.338;8.794;2022-10-31T01:20:06;10.18;;;4.60;;
63157;SDS011;49381;49.338;8.794;2022-10-31T01:22:08;7.05;;;4.32;;
63157;SDS011;49381;49.338;8.794;2022-10-31T01:24:08;8.25;;;5.03;;
63157;SDS011;49381;49.338;8.794;2022-10-31T01:26:10;9.63;;;4.47;;
63157;SDS011;49381;49.338;8.794;2022-10-31T01:28:11;10.35;;;4.65;;
63157;SDS011;49381;49.338;8.794;2022-10-31T01:30:13;11.00;;;5.15;;
63157;SDS011;49381;49.338;8.794;2022-10-31T01:32:13;9.48;;;4.47;;
63157;SDS011;49381;49.338;8.794;2022-10-31T01:34:14;10.98;;;5.00;;
63157;SDS011;49381;49.338;8.794;2022-10-31T01:36:17;11.13;;;4.82;;
63157;SDS011;49381;49.338;8.794;2022-10-31T01:38:18;7.53;;;4.72;;
63157;SDS011;49381;49.338;8.794;2022-10-31T01:40:19;9.95;;;4.45;;
63157;SDS011;49381;49.338;8.794;2022-10-31T01:42:20;7.15;;;4.22;;
63157;SDS011;49381;49.338;8.794;2022-10-31T01:46:54;8.80;;;4.13;;
63157;SDS011;49381;49.338;8.794;2022-10-31T01:48:57;8.88;;;4.80;;
63157;SDS011;49381;49.338;8.794;2022-10-31T01:51:00;8.02;;;4.25;;
63157;SDS011;49381;49.338;8.794;2022-10-31T01:53:02;10.88;;;4.60;;
63157;SDS011;49381;49.338;8.794;2022-10-31T01:55:07;5.30;;;3.88;;
63157;SDS011;49381;49.338;8.794;2022-10-31T01:57:12;4.55;;;3.00;;
63157;SDS011;49381;49.338;8.794;2022-10-31T01:59:15;5.47;;;2.70;;
63157;SDS011;49381;49.338;8.794;2022-10-31T02:01:19;5.50;;;2.28;;
63157;SDS011;49381;49.338;8.794;2022-10-31T02:03:20;3.92;;;2.75;;
63157;SDS011;49381;49.338;8.794;2022-10-31T02:05:22;4.63;;;2.42;;
63157;SDS011;49381;49.338;8.794;2022-10-31T02:07:26;4.15;;;2.83;;
63157;SDS011;49381;49.338;8.794;2022-10-31T02:09:31;5.97;;;3.20;;
63157;SDS011;49381;49.338;8.794;2022-10-31T02:11:31;4.68;;;2.78;;
63157;SDS011;49381;49.338;8.794;2022-10-31T02:13:34;7.70;;;2.80;;
63157;SDS011;49381;49.338;8.794;2022-10-31T02:15:35;8.65;;;3.80;;
63157;SDS011;49381;49.338;8.794;2022-10-31T02:17:37;8.10;;;4.10;;
63157;SDS011;49381;49.338;8.794;2022-10-31T02:19:40;7.15;;;3.50;;
63157;SDS011;49381;49.338;8.794;2022-10-31T02:21:49;10.63;;;4.07;;
63157;SDS011;49381;49.338;8.794;2022-10-31T02:26:45;8.20;;;3.75;;
63157;SDS011;49381;49.338;8.794;2022-10-31T02:29:15;6.63;;;3.97;;
63157;SDS011;49381;49.338;8.794;2022-10-31T02:31:37;6.63;;;3.70;;
63157;SDS011;49381;49.338;8.794;2022-10-31T02:33:45;6.22;;;3.60;;
63157;SDS011;49381;49.338;8.794;2022-10-31T02:35:53;7.32;;;3.75;;
63157;SDS011;49381;49.338;8.794;2022-10-31T02:38:01;7.95;;;3.80;;
63157;SDS011;49381;49.338;8.794;2022-10-31T02:40:05;7.97;;;3.70;;
63157;SDS011;49381;49.338;8.794;2022-10-31T02:42:14;9.38;;;4.05;;
63157;SDS011;49381;49.338;8.794;2022-10-31T02:44:20;6.13;;;3.42;;
63157;SDS011;49381;49.338;8.794;2022-10-31T02:46:27;4.65;;;3.35;;
63157;SDS011;49381;49.338;8.794;2022-10-31T02:48:32;7.10;;;3.83;;
63157;SDS011;49381;49.338;8.794;2022-10-31T02:50:34;5.22;;;3.42;;
63157;SDS011;49381;49.338;8.794;2022-10-31T02:52:37;10.48;;;3.90;;
63157;SDS011;49381;49.338;8.794;2022-10-31T02:54:38;8.35;;;3.33;;
63157;SDS011;49381;49.338;8.794;2022-10-31T02:56:39;4.72;;;3.00;;
63157;SDS011;49381;49.338;8.794;2022-10-31T02:58:40;5.93;;;3.17;;
63157;SDS011;49381;49.338;8.794;2022-10-31T03:00:51;5.13;;;3.38;;
63157;SDS011;49381;49.338;8.794;2022-10-31T03:03:06;5.07;;;3.00;;
63157;SDS011;49381;49.338;8.794;2022-10-31T03:05:22;5.05;;;2.67;;
63157;SDS011;49381;49.338;8.794;2022-10-31T03:07:30;3.70;;;2.63;;
63157;SDS011;49381;49.338;8.794;2022-10-31T03:09:37;5.43;;;2.58;;
63157;SDS011;49381;49.338;8.794;2022-10-31T03:11:45;6.68;;;2.95;;
63157;SDS011;49381;49.338;8.794;2022-10-31T03:13:55;7.32;;;3.15;;
63157;SDS011;49381;49.338;8.794;2022-10-31T03:16:06;5.32;;;2.95;;
63157;SDS011;49381;49.338;8.794;2022-10-31T03:18:12;9.45;;;3.55;;
63157;SDS011;49381;49.338;8.794;2022-10-31T03:20:17;4.85;;;2.95;;
63157;SDS011;49381;49.338;8.794;2022-10-31T03:22:25;7.35;;;3.40;;
63157;SDS011;49381;49.338;8.794;2022-10-31T03:24:29;7.25;;;3.20;;
63157;SDS011;49381;49.338;8.794;2022-10-31T03:26:34;7.00;;;3.10;;
63157;SDS011;49381;49.338;8.794;2022-10-31T03:28:37;4.15;;;2.90;;
63157;SDS011;49381;49.338;8.794;2022-10-31T03:30:42;8.57;;;3.10;;
63157;SDS011;49381;49.338;8.794;2022-10-31T03:32:44;8.00;;;3.38;;
63157;SDS011;49381;49.338;8.794;2022-10-31T03:34:48;5.20;;;3.25;;
63157;SDS011;49381;49.338;8.794;2022-10-31T03:36:53;7.85;;;3.25;;
63157;SDS011;49381;49.338;8.794;2022-10-31T03:38:55;9.65;;;3.67;;
63157;SDS011;49381;49.338;8.794;2022-10-31T03:40:58;8.52;;;4.00;;
63157;SDS011;49381;49.338;8.794;2022-10-31T03:43:03;13.30;;;3.90;;
63157;SDS011;49381;49.338;8.794;2022-10-31T03:45:07;7.65;;;3.83;;
63157;SDS011;49381;49.338;8.794;2022-10-31T03:47:11;9.57;;;3.85;;
63157;SDS011;49381;49.338;8.794;2022-10-31T03:49:11;7.60;;;3.53;;
63157;SDS011;49381;49.338;8.794;2022-10-31T03:51:13;7.38;;;3.63;;
63157;SDS011;49381;49.338;8.794;2022-10-31T03:53:22;9.23;;;4.55;;
63157;SDS011;49381;49.338;8.794;2022-10-31T03:55:26;8.20;;;4.20;;
63157;SDS011;49381;49.338;8.794;2022-10-31T03:57:32;8.70;;;4.45;;
63157;SDS011;49381;49.338;8.794;2022-10-31T03:59:38;6.95;;;3.88;;
63157;SDS011;49381;49.338;8.794;2022-10-31T04:01:43;6.13;;;4.35;;
63157;SDS011;49381;49.338;8.794;2022-10-31T04:03:48;5.85;;;3.55;;
63157;SDS011;49381;49.338;8.794;2022-10-31T04:05:49;9.23;;;3.78;;
63157;SDS011;49381;49.338;8.794;2022-10-31T04:07:54;10.38;;;3.50;;
63157;SDS011;49381;49.338;8.794;2022-10-31T04:09:57;9.35;;;3.75;;
63157;SDS011;49381;49.338;8.794;2022-10-31T04:12:00;6.90;;;3.30;;
63157;SDS011;49381;49.338;8.794;2022-10-31T04:14:02;6.22;;;2.90;;
63157;SDS011;49381;49.338;8.794;2022-10-31T04:16:05;5.70;;;2.67;;
63157;SDS011;49381;49.338;8.794;2022-10-31T04:18:07;6.95;;;3.03;;
63157;SDS011;49381;49.338;8.794;2022-10-31T04:20:08;4.65;;;2.80;;
63157;SDS011;49381;49.338;8.794;2022-10-31T04:22:09;5.05;;;2.75;;
63157;SDS011;49381;49.338;8.794;2022-10-31T04:24:09;4.38;;;2.55;;
63157;SDS011;49381;49.338;8.794;2022-10-31T04:26:11;5.70;;;3.25;;
63157;SDS011;49381;49.338;8.794;2022-10-31T04:28:12;5.95;;;3.10;;
63157;SDS011;49381;49.338;8.794;2022-10-31T04:30:12;5.40;;;3.10;;
63157;SDS011;49381;49.338;8.794;2022-10-31T04:32:12;8.48;;;3.67;;
63157;SDS011;49381;49.338;8.794;2022-10-31T04:34:13;5.78;;;3.58;;
63157;SDS011;49381;49.338;8.794;2022-10-31T04:36:13;5.80;;;3.42;;
63157;SDS011;49381;49.338;8.794;2022-10-31T04:38:13;10.98;;;4.63;;
63157;SDS011;49381;49.338;8.794;2022-10-31T04:40:14;4.65;;;3.22;;
63157;SDS011;49381;49.338;8.794;2022-10-31T04:42:16;5.05;;;2.67;;
63157;SDS011;49381;49.338;8.794;2022-10-31T04:44:16;6.00;;;3.42;;
63157;SDS011;49381;49.338;8.794;2022-10-31T04:46:16;4.28;;;3.13;;
63157;SDS011;49381;49.338;8.794;2022-10-31T04:48:17;4.78;;;3.15;;
63157;SDS011;49381;49.338;8.794;2022-10-31T04:50:17;6.78;;;3.67;;
63157;SDS011;49381;49.338;8.794;2022-10-31T04:52:17;5.43;;;3.60;;
63157;SDS011;49381;49.338;8.794;2022-10-31T04:54:18;5.68;;;3.22;;
63157;SDS011;49381;49.338;8.794;2022-10-31T04:56:18;5.32;;;3.30;;
63157;SDS011;49381;49.338;8.794;2022-10-31T04:58:20;6.45;;;3.47;;
63157;SDS011;49381;49.338;8.794;2022-10-31T05:00:21;5.75;;;3.35;;
63157;SDS011;49381;49.338;8.794;2022-10-31T05:02:22;8.90;;;4.00;;
63157;SDS011;49381;49.338;8.794;2022-10-31T05:04:22;7.55;;;3.95;;
63157;SDS011;49381;49.338;8.794;2022-10-31T05:06:22;8.77;;;3.85;;
63157;SDS011;49381;49.338;8.794;2022-10-31T05:08:23;7.00;;;4.55;;
63157;SDS011;49381;49.338;8.794;2022-10-31T05:10:24;10.45;;;4.47;;
63157;SDS011;49381;49.338;8.794;2022-10-31T05:12:25;6.53;;;4.22;;
63157;SDS011;49381;49.338;8.794;2022-10-31T05:14:27;10.82;;;4.28;;
63157;SDS011;49381;49.338;8.794;2022-10-31T05:16:27;6.93;;;4.15;;
63157;SDS011;49381;49.338;8.794;2022-10-31T05:18:28;6.90;;;3.78;;
63157;SDS011;49381;49.338;8.794;2022-10-31T05:20:29;9.82;;;3.88;;
63157;SDS011;49381;49.338;8.794;2022-10-31T05:22:30;6.15;;;3.55;;
63157;SDS011;49381;49.338;8.794;2022-10-31T05:24:30;4.55;;;2.90;;
63157;SDS011;49381;49.338;8.794;2022-10-31T05:26:30;6.72;;;3.58;;
63157;SDS011;49381;49.338;8.794;2022-10-31T05:28:31;7.47;;;3.53;;
63157;SDS011;49381;49.338;8.794;2022-10-31T05:30:32;8.88;;;3.28;;
63157;SDS011;49381;49.338;8.794;2022-10-31T05:32:36;9.40;;;3.22;;
63157;SDS011;49381;49.338;8.794;2022-10-31T05:34:37;16.77;;;3.83;;
63157;SDS011;49381;49.338;8.794;2022-10-31T05:36:37;7.60;;;3.92;;
63157;SDS011;49381;49.338;8.794;2022-10-31T05:38:37;26.73;;;4.38;;
63157;SDS011;49381;49.338;8.794;2022-10-31T05:40:38;21.35;;;3.95;;
63157;SDS011;49381;49.338;8.794;2022-10-31T05:42:38;40.42;;;5.10;;
63157;SDS011;49381;49.338;8.794;2022-10-31T05:44:39;14.70;;;3.83;;
63157;SDS011;49381;49.338;8.794;2022-10-31T05:46:41;23.52;;;4.57;;
63157;SDS011;49381;49.338;8.794;2022-10-31T05:48:41;5.55;;;3.53;;
63157;SDS011;49381;49.338;8.794;2022-10-31T05:50:41;11.15;;;3.80;;
63157;SDS011;49381;49.338;8.794;2022-10-31T05:52:41;9.20;;;3.85;;
63157;SDS011;49381;49.338;8.794;2022-10-31T05:54:42;6.65;;;4.38;;
63157;SDS011;49381;49.338;8.794;2022-10-31T05:56:42;6.95;;;3.63;;
63157;SDS011;49381;49.338;8.794;2022-10-31T05:58:42;6.47;;;4.18;;
63157;SDS011;49381;49.338;8.794;2022-10-31T06:00:43;7.35;;;3.85;;
63157;SDS011;49381;49.338;8.794;2022-10-31T06:02:44;7.80;;;3.38;;
63157;SDS011;49381;49.338;8.794;2022-10-31T06:04:45;5.70;;;3.25;;
63157;SDS011;49381;49.338;8.794;2022-10-31T06:06:45;8.05;;;3.35;;
63157;SDS011;49381;49.338;8.794;2022-10-31T06:08:45;7.15;;;3.67;;
63157;SDS011;49381;49.338;8.794;2022-10-31T06:10:46;5.20;;;3.47;;
63157;SDS011;49381;49.338;8.794;2022-10-31T06:12:46;7.20;;;3.35;;
63157;SDS011;49381;49.338;8.794;2022-10-31T06:14:47;8.98;;;3.17;;
63157;SDS011;49381;49.338;8.794;2022-10-31T06:16:47;6.55;;;3.10;;
63157;SDS011;49381;49.338;8.794;2022-10-31T06:18:49;5.82;;;2.88;;
63157;SDS011;49381;49.338;8.794;2022-10-31T06:20:49;6.03;;;3.30;;
63157;SDS011;49381;49.338;8.794;2022-10-31T06:22:50;6.80;;;3.40;;
63157;SDS011;49381;49.338;8.794;2022-10-31T06:24:50;6.13;;;3.03;;
63157;SDS011;49381;49.338;8.794;2022-10-31T06:26:50;4.43;;;2.88;;
63157;SDS011;49381;49.338;8.794;2022-10-31T06:28:51;6.57;;;2.75;;
63157;SDS011;49381;49.338;8.794;2022-10-31T06:30:51;4.93;;;2.97;;
63157;SDS011;49381;49.338;8.794;2022-10-31T06:32:51;5.68;;;3.15;;
63157;SDS011;49381;49.338;8.794;2022-10-31T06:34:53;9.57;;;3.13;;
63157;SDS011;49381;49.338;8.794;2022-10-31T06:36:54;10.85;;;3.85;;
63157;SDS011;49381;49.338;8.794;2022-10-31T06:38:54;10.23;;;3.80;;
63157;SDS011;49381;49.338;8.794;2022-10-31T06:40:54;13.55;;;3.38;;
63157;SDS011;49381;49.338;8.794;2022-10-31T06:42:55;11.05;;;3.58;;
63157;SDS011;49381;49.338;8.794;2022-10-31T06:44:56;7.10;;;3.28;;
63157;SDS011;49381;49.338;8.794;2022-10-31T06:46:57;7.20;;;3.20;;
63157;SDS011;49381;49.338;8.794;2022-10-31T06:48:57;6.63;;;3.35;;
63157;SDS011;49381;49.338;8.794;2022-10-31T06:50:59;12.48;;;3.95;;
63157;SDS011;49381;49.338;8.794;2022-10-31T06:53:00;6.10;;;3.22;;
63157;SDS011;49381;49.338;8.794;2022-10-31T06:55:00;12.20;;;3.80;;
63157;SDS011;49381;49.338;8.794;2022-10-31T06:57:01;5.90;;;3.15;;
63157;SDS011;49381;49.338;8.794;2022-10-31T06:59:01;6.93;;;4.13;;
63157;SDS011;49381;49.338;8.794;2022-10-31T07:01:01;6.57;;;3.40;;
63157;SDS011;49381;49.338;8.794;2022-10-31T07:03:03;8.18;;;4.07;;
63157;SDS011;49381;49.338;8.794;2022-10-31T07:05:05;9.95;;;3.65;;
63157;SDS011;49381;49.338;8.794;2022-10-31T07:07:07;6.95;;;3.13;;
63157;SDS011;49381;49.338;8.794;2022-10-31T07:09:07;6.90;;;3.40;;
63157;SDS011;49381;49.338;8.794;2022-10-31T07:11:08;9.98;;;4.00;;
63157;SDS011;49381;49.338;8.794;2022-10-31T07:13:10;8.13;;;3.55;;
63157;SDS011;49381;49.338;8.794;2022-10-31T07:15:12;8.85;;;3.65;;
63157;SDS011;49381;49.338;8.794;2022-10-31T07:17:12;6.75;;;3.15;;
63157;SDS011;49381;49.338;8.794;2022-10-31T07:19:12;5.85;;;3.40;;
63157;SDS011;49381;49.338;8.794;2022-10-31T07:21:13;8.25;;;3.95;;
63157;SDS011;49381;49.338;8.794;2022-10-31T07:23:14;8.75;;;3.60;;
63157;SDS011;49381;49.338;8.794;2022-10-31T07:25:15;6.95;;;4.40;;
63157;SDS011;49381;49.338;8.794;2022-10-31T07:27:15;9.63;;;4.22;;
63157;SDS011;49381;49.338;8.794;2022-10-31T07:29:16;15.38;;;4.25;;
63157;SDS011;49381;49.338;8.794;2022-10-31T07:31:16;10.07;;;3.83;;
63157;SDS011;49381;49.338;8.794;2022-10-31T07:33:17;9.18;;;4.72;;
63157;SDS011;49381;49.338;8.794;2022-10-31T07:35:18;7.32;;;3.70;;
63157;SDS011;49381;49.338;8.794;2022-10-31T07:37:20;6.13;;;4.10;;
63157;SDS011;49381;49.338;8.794;2022-10-31T07:39:21;7.50;;;4.05;;
63157;SDS011;49381;49.338;8.794;2022-10-31T07:41:22;9.32;;;4.80;;
63157;SDS011;49381;49.338;8.794;2022-10-31T07:43:22;8.98;;;4.20;;
63157;SDS011;49381;49.338;8.794;2022-10-31T07:45:23;7.38;;;3.85;;
63157;SDS011;49381;49.338;8.794;2022-10-31T07:47:23;6.35;;;3.70;;
63157;SDS011;49381;49.338;8.794;2022-10-31T07:49:24;8.38;;;4.13;;
63157;SDS011;49381;49.338;8.794;2022-10-31T07:51:24;10.40;;;4.60;;
63157;SDS011;49381;49.338;8.794;2022-10-31T07:53:25;11.20;;;4.00;;
63157;SDS011;49381;49.338;8.794;2022-10-31T07:55:27;9.98;;;5.38;;
63157;SDS011;49381;49.338;8.794;2022-10-31T07:57:28;14.25;;;7.78;;
63157;SDS011;49381;49.338;8.794;2022-10-31T07:59:28;10.50;;;5.38;;
63157;SDS011;49381;49.338;8.794;2022-10-31T08:01:29;8.63;;;4.70;;
63157;SDS011;49381;49.338;8.794;2022-10-31T08:03:29;5.95;;;3.83;;
63157;SDS011;49381;49.338;8.794;2022-10-31T08:05:33;7.72;;;4.07;;
63157;SDS011;49381;49.338;8.794;2022-10-31T08:07:35;10.10;;;5.60;;
63157;SDS011;49381;49.338;8.794;2022-10-31T08:09:38;10.98;;;5.72;;
63157;SDS011;49381;49.338;8.794;2022-10-31T08:11:40;10.90;;;5.57;;
63157;SDS011;49381;49.338;8.794;2022-10-31T08:13:40;13.32;;;6.50;;
63157;SDS011;49381;49.338;8.794;2022-10-31T08:15:41;12.35;;;5.28;;
63157;SDS011;49381;49.338;8.794;2022-10-31T08:17:41;10.63;;;5.20;;
63157;SDS011;49381;49.338;8.794;2022-10-31T08:19:42;17.60;;;5.85;;
63157;SDS011;49381;49.338;8.794;2022-10-31T08:21:42;12.25;;;5.28;;
63157;SDS011;49381;49.338;8.794;2022-10-31T08:23:43;10.27;;;4.65;;
63157;SDS011;49381;49.338;8.794;2022-10-31T08:25:43;12.00;;;5.30;;
63157;SDS011;49381;49.338;8.794;2022-10-31T08:27:49;7.93;;;4.45;;
63157;SDS011;49381;49.338;8.794;2022-10-31T08:29:50;10.90;;;5.03;;
63157;SDS011;49381;49.338;8.794;2022-10-31T08:31:51;12.02;;;4.80;;
63157;SDS011;49381;49.338;8.794;2022-10-31T08:33:52;8.20;;;4.55;;
63157;SDS011;49381;49.338;8.794;2022-10-31T08:35:52;8.50;;;4.70;;
63157;SDS011;49381;49.338;8.794;2022-10-31T08:37:53;12.45;;;5.20;;
63157;SDS011;49381;49.338;8.794;2022-10-31T08:39:53;11.98;;;5.63;;
63157;SDS011;49381;49.338;8.794;2022-10-31T08:41:53;11.65;;;4.93;;
63157;SDS011;49381;49.338;8.794;2022-10-31T08:43:55;9.38;;;4.85;;
63157;SDS011;49381;49.338;8.794;2022-10-31T08:45:56;9.52;;;5.00;;
63157;SDS011;49381;49.338;8.794;2022-10-31T08:47:57;10.73;;;5.18;;
63157;SDS011;49381;49.338;8.794;2022-10-31T08:49:57;9.70;;;5.32;;
63157;SDS011;49381;49.338;8.794;2022-10-31T08:51:58;9.80;;;4.97;;
63157;SDS011;49381;49.338;8.794;2022-10-31T08:54:00;10.80;;;4.88;;
63157;SDS011;49381;49.338;8.794;2022-10-31T08:56:01;9.07;;;4.50;;
63157;SDS011;49381;49.338;8.794;2022-10-31T08:58:02;10.35;;;4.10;;
63157;SDS011;49381;49.338;8.794;2022-10-31T09:00:05;9.40;;;4.07;;
63157;SDS011;49381;49.338;8.794;2022-10-31T09:02:07;7.88;;;4.20;;
63157;SDS011;49381;49.338;8.794;2022-10-31T09:04:07;11.70;;;4.95;;
63157;SDS011;49381;49.338;8.794;2022-10-31T09:06:07;10.32;;;4.35;;
63157;SDS011;49381;49.338;8.794;2022-10-31T09:08:08;12.07;;;4.55;;
63157;SDS011;49381;49.338;8.794;2022-10-31T09:10:09;11.32;;;4.50;;
63157;SDS011;49381;49.338;8.794;2022-10-31T09:12:09;10.32;;;4.30;;
63157;SDS011;49381;49.338;8.794;2022-10-31T09:14:09;10.75;;;4.35;;
63157;SDS011;49381;49.338;8.794;2022-10-31T09:16:11;9.45;;;4.70;;
63157;SDS011;49381;49.338;8.794;2022-10-31T09:18:12;12.38;;;4.50;;
63157;SDS011;49381;49.338;8.794;2022-10-31T09:20:17;8.68;;;4.40;;
63157;SDS011;49381;49.338;8.794;2022-10-31T09:22:18;10.43;;;4.85;;
63157;SDS011;49381;49.338;8.794;2022-10-31T09:24:18;10.65;;;4.43;;
63157;SDS011;49381;49.338;8.794;2022-10-31T09:26:19;7.50;;;4.38;;
63157;SDS011;49381;49.338;8.794;2022-10-31T09:28:20;14.57;;;4.50;;
63157;SDS011;49381;49.338;8.794;2022-10-31T09:30:21;9.57;;;3.97;;
63157;SDS011;49381;49.338;8.794;2022-10-31T09:32:22;9.55;;;4.65;;
63157;SDS011;49381;49.338;8.794;2022-10-31T09:34:23;14.82;;;4.65;;
63157;SDS011;49381;49.338;8.794;2022-10-31T09:36:23;16.00;;;4.35;;
63157;SDS011;49381;49.338;8.794;2022-10-31T09:38:23;13.80;;;4.70;;
63157;SDS011;49381;49.338;8.794;2022-10-31T09:40:24;13.88;;;5.18;;
63157;SDS011;49381;49.338;8.794;2022-10-31T09:42:34;10.00;;;4.07;;
63157;SDS011;49381;49.338;8.794;2022-10-31T09:44:46;9.63;;;5.25;;
63157;SDS011;49381;49.338;8.794;2022-10-31T09:46:53;13.65;;;5.85;;
63157;SDS011;49381;49.338;8.794;2022-10-31T09:49:05;9.52;;;5.03;;
63157;SDS011;49381;49.338;8.794;2022-10-31T09:51:40;11.93;;;5.70;;
63157;SDS011;49381;49.338;8.794;2022-10-31T09:53:44;12.23;;;5.68;;
63157;SDS011;49381;49.338;8.794;2022-10-31T09:55:49;14.45;;;5.93;;
63157;SDS011;49381;49.338;8.794;2022-10-31T09:57:50;16.08;;;6.00;;
63157;SDS011;49381;49.338;8.794;2022-10-31T09:59:51;9.20;;;5.50;;
63157;SDS011;49381;49.338;8.794;2022-10-31T10:01:54;10.93;;;6.15;;
63157;SDS011;49381;49.338;8.794;2022-10-31T10:03:58;13.85;;;6.28;;
63157;SDS011;49381;49.338;8.794;2022-10-31T10:06:04;13.48;;;6.60;;
63157;SDS011;49381;49.338;8.794;2022-10-31T10:08:11;15.30;;;6.30;;
63157;SDS011;49381;49.338;8.794;2022-10-31T10:10:17;21.25;;;7.30;;
63157;SDS011;49381;49.338;8.794;2022-10-31T10:12:35;14.13;;;6.53;;
63157;SDS011;49381;49.338;8.794;2022-10-31T10:14:46;18.25;;;7.03;;
63157;SDS011;49381;49.338;8.794;2022-10-31T10:17:06;16.05;;;7.10;;
63157;SDS011;49381;49.338;8.794;2022-10-31T10:19:21;14.43;;;7.18;;
63157;SDS011;49381;49.338;8.794;2022-10-31T10:21:35;14.75;;;7.78;;
63157;SDS011;49381;49.338;8.794;2022-10-31T10:23:46;13.65;;;7.80;;
63157;SDS011;49381;49.338;8.794;2022-10-31T10:25:53;15.45;;;8.70;;
63157;SDS011;49381;49.338;8.794;2022-10-31T10:28:12;17.40;;;7.97;;
63157;SDS011;49381;49.338;8.794;2022-10-31T10:30:18;15.07;;;7.50;;
63157;SDS011;49381;49.338;8.794;2022-10-31T10:32:22;14.30;;;7.05;;
63157;SDS011;49381;49.338;8.794;2022-10-31T10:34:26;19.60;;;7.80;;
63157;SDS011;49381;49.338;8.794;2022-10-31T10:36:31;16.13;;;8.18;;
63157;SDS011;49381;49.338;8.794;2022-10-31T10:38:48;14.07;;;8.02;;
63157;SDS011;49381;49.338;8.794;2022-10-31T10:40:52;15.15;;;7.40;;
63157;SDS011;49381;49.338;8.794;2022-10-31T10:42:55;15.88;;;6.35;;
63157;SDS011;49381;49.338;8.794;2022-10-31T10:45:00;13.32;;;7.25;;
63157;SDS011;49381;49.338;8.794;2022-10-31T10:47:13;13.48;;;7.93;;
63157;SDS011;49381;49.338;8.794;2022-10-31T10:49:16;15.80;;;7.97;;
63157;SDS011;49381;49.338;8.794;2022-10-31T10:51:20;13.02;;;6.68;;
63157;SDS011;49381;49.338;8.794;2022-10-31T10:53:28;14.18;;;7.68;;
63157;SDS011;49381;49.338;8.794;2022-10-31T10:55:40;14.30;;;7.22;;
63157;SDS011;49381;49.338;8.794;2022-10-31T10:57:50;10.07;;;5.85;;
63157;SDS011;49381;49.338;8.794;2022-10-31T10:59:55;12.10;;;6.80;;
63157;SDS011;49381;49.338;8.794;2022-10-31T11:01:57;11.57;;;6.47;;
63157;SDS011;49381;49.338;8.794;2022-10-31T11:03:58;15.10;;;6.80;;
63157;SDS011;49381;49.338;8.794;2022-10-31T11:05:59;17.00;;;7.13;;
63157;SDS011;49381;49.338;8.794;2022-10-31T11:07:59;13.45;;;6.53;;
63157;SDS011;49381;49.338;8.794;2022-10-31T11:10:04;10.52;;;6.10;;
63157;SDS011;49381;49.338;8.794;2022-10-31T11:12:07;12.82;;;6.78;;
63157;SDS011;49381;49.338;8.794;2022-10-31T11:14:11;15.93;;;7.28;;
63157;SDS011;49381;49.338;8.794;2022-10-31T11:16:15;13.80;;;6.60;;
63157;SDS011;49381;49.338;8.794;2022-10-31T11:18:29;10.85;;;5.50;;
63157;SDS011;49381;49.338;8.794;2022-10-31T11:20:32;12.10;;;6.25;;
63157;SDS011;49381;49.338;8.794;2022-10-31T11:22:33;11.15;;;5.70;;
63157;SDS011;49381;49.338;8.794;2022-10-31T11:24:36;10.18;;;5.85;;
63157;SDS011;49381;49.338;8.794;2022-10-31T11:26:40;14.93;;;6.10;;
63157;SDS011;49381;49.338;8.794;2022-10-31T11:28:42;15.95;;;7.15;;
63157;SDS011;49381;49.338;8.794;2022-10-31T11:30:43;12.52;;;6.88;;
63157;SDS011;49381;49.338;8.794;2022-10-31T11:32:47;13.00;;;6.82;;
63157;SDS011;49381;49.338;8.794;2022-10-31T11:34:50;17.30;;;6.22;;
63157;SDS011;49381;49.338;8.794;2022-10-31T11:36:52;12.95;;;5.85;;
63157;SDS011;49381;49.338;8.794;2022-10-31T11:38:52;15.20;;;5.65;;
63157;SDS011;49381;49.338;8.794;2022-10-31T11:40:54;9.98;;;5.43;;
63157;SDS011;49381;49.338;8.794;2022-10-31T11:42:59;13.65;;;7.18;;
63157;SDS011;49381;49.338;8.794;2022-10-31T11:44:59;12.57;;;6.05;;
63157;SDS011;49381;49.338;8.794;2022-10-31T11:47:02;13.75;;;6.15;;
63157;SDS011;49381;49.338;8.794;2022-10-31T11:49:05;12.05;;;5.18;;
63157;SDS011;49381;49.338;8.794;2022-10-31T11:51:19;11.63;;;5.05;;
63157;SDS011;49381;49.338;8.794;2022-10-31T11:53:23;8.65;;;4.68;;
63157;SDS011;49381;49.338;8.794;2022-10-31T11:55:30;8.70;;;5.00;;
63157;SDS011;49381;49.338;8.794;2022-10-31T11:57:41;11.48;;;5.15;;
63157;SDS011;49381;49.338;8.794;2022-10-31T11:59:50;10.60;;;4.65;;
63157;SDS011;49381;49.338;8.794;2022-10-31T12:01:51;10.32;;;4.82;;
63157;SDS011;49381;49.338;8.794;2022-10-31T12:03:59;11.93;;;4.93;;
63157;SDS011;49381;49.338;8.794;2022-10-31T12:06:05;14.43;;;5.70;;
63157;SDS011;49381;49.338;8.794;2022-10-31T12:08:09;12.50;;;5.25;;
63157;SDS011;49381;49.338;8.794;2022-10-31T12:10:11;10.27;;;4.85;;
63157;SDS011;49381;49.338;8.794;2022-10-31T12:12:22;14.70;;;4.82;;
63157;SDS011;49381;49.338;8.794;2022-10-31T12:14:36;7.50;;;4.45;;
63157;SDS011;49381;49.338;8.794;2022-10-31T12:16:48;9.32;;;4.85;;
63157;SDS011;49381;49.338;8.794;2022-10-31T12:18:56;8.63;;;4.07;;
63157;SDS011;49381;49.338;8.794;2022-10-31T12:21:06;10.10;;;4.63;;